Main page
METAR-TAF:

METAR-TAF

Airports :

Sliač, Slovakia

Sliač Airport

latitude: 48-38-17N, longitude: 019-08-03E, elevation: 318 m

Current weather observation

The report was made 26 minutes ago, at 14:00 UTC
Wind 4 kt from variable directions
Temperature 25°C
Humidity 34%
Pressure 1023 hPa
Visibility 10 km or more
no clouds below 1500 m and no cumulonimbus

METAR: LZSL 281400Z VRB04KT CAVOK 25/08 Q1023

Time: 16:26 (14:26 UTC)

Forecast

The report was made 3 hours and 26 minutes ago, at 11:00 UTC
Forecast valid from 28 at 12 UTC to 28 at 21 UTC
Wind 2 kt from variable directions
Visibility 10 km or more
no clouds below 1500 m and no cumulonimbus
Temporary
from 28 at 12 UTC to 28 at 15 UTC
Wind 7 kt from the South/Southeast

TAF: LZSL 281100Z 2812/2821 VRB02KT CAVOK TEMPO 2812/2815 16007KT

Weather observations and forecasts of more than 4000 airports (METAR and TAF reports).

The available stations are represented by yellow and red dots on the map.

Hover mouse over dot to see the name of the station.

Then click to see weather observations and forecasts.

To change the map : click on the green buttons with a black cross to zoom in, on the green button with a dash to zoom out, or on the green arrows for adjacent maps.


METAR-TAF: